sensor_id;sensor_type;location;lat;lon;timestamp;pressure;altitude;pressure_sealevel;temperature;humidity
63190;BME280;49286;44.460;26.114;2023-04-03T00:00:03;99471.78;;;9.02;100.00
63190;BME280;49286;44.460;26.114;2023-04-03T00:02:28;99462.25;;;8.97;100.00
63190;BME280;49286;44.460;26.114;2023-04-03T00:04:54;99505.72;;;9.10;100.00
63190;BME280;49286;44.460;26.114;2023-04-03T00:07:20;99518.84;;;9.08;100.00
63190;BME280;49286;44.460;26.114;2023-04-03T00:09:46;99508.47;;;8.99;100.00
63190;BME280;49286;44.460;26.114;2023-04-03T00:12:11;99453.78;;;8.69;100.00
63190;BME280;49286;44.460;26.114;2023-04-03T00:14:37;99374.91;;;8.02;100.00
63190;BME280;49286;44.460;26.114;2023-04-03T00:17:02;99381.81;;;8.14;100.00
63190;BME280;49286;44.460;26.114;2023-04-03T00:19:27;99380.94;;;8.15;100.00
63190;BME280;49286;44.460;26.114;2023-04-03T00:21:53;99496.66;;;8.43;100.00
63190;BME280;49286;44.460;26.114;2023-04-03T00:24:19;99507.69;;;8.83;100.00
63190;BME280;49286;44.460;26.114;2023-04-03T00:26:44;99390.50;;;8.17;100.00
63190;BME280;49286;44.460;26.114;2023-04-03T00:29:10;99473.78;;;8.73;100.00
63190;BME280;49286;44.460;26.114;2023-04-03T00:31:35;99498.94;;;8.92;100.00
63190;BME280;49286;44.460;26.114;2023-04-03T00:34:01;99419.06;;;8.48;100.00
63190;BME280;49286;44.460;26.114;2023-04-03T00:36:26;99499.19;;;8.54;100.00
63190;BME280;49286;44.460;26.114;2023-04-03T00:38:52;99497.38;;;8.63;100.00
63190;BME280;49286;44.460;26.114;2023-04-03T00:41:17;99500.00;;;8.66;100.00
63190;BME280;49286;44.460;26.114;2023-04-03T00:43:42;99474.78;;;8.53;100.00
63190;BME280;49286;44.460;26.114;2023-04-03T00:46:08;99499.03;;;8.78;100.00
63190;BME280;49286;44.460;26.114;2023-04-03T00:48:43;99506.84;;;8.80;100.00
63190;BME280;49286;44.460;26.114;2023-04-03T00:51:13;99380.25;;;7.83;100.00
63190;BME280;49286;44.460;26.114;2023-04-03T00:53:44;99515.75;;;8.56;100.00
63190;BME280;49286;44.460;26.114;2023-04-03T00:56:14;99393.34;;;7.77;100.00
63190;BME280;49286;44.460;26.114;2023-04-03T00:58:49;99511.38;;;8.59;100.00
63190;BME280;49286;44.460;26.114;2023-04-03T01:01:22;99391.56;;;7.86;100.00
63190;BME280;49286;44.460;26.114;2023-04-03T01:03:48;99506.09;;;8.64;100.00
63190;BME280;49286;44.460;26.114;2023-04-03T01:06:16;99520.03;;;8.61;100.00
63190;BME280;49286;44.460;26.114;2023-04-03T01:08:42;99382.94;;;7.70;100.00
63190;BME280;49286;44.460;26.114;2023-04-03T01:11:08;99500.22;;;8.19;100.00
63190;BME280;49286;44.460;26.114;2023-04-03T01:13:33;99380.34;;;7.65;100.00
63190;BME280;49286;44.460;26.114;2023-04-03T01:16:03;99528.81;;;8.57;100.00
63190;BME280;49286;44.460;26.114;2023-04-03T01:18:29;99478.53;;;8.00;100.00
63190;BME280;49286;44.460;26.114;2023-04-03T01:26:00;99514.88;;;8.54;100.00
63190;BME280;49286;44.460;26.114;2023-04-03T01:28:29;99513.19;;;8.48;100.00
63190;BME280;49286;44.460;26.114;2023-04-03T01:33:40;99381.25;;;7.61;100.00
63190;BME280;49286;44.460;26.114;2023-04-03T01:36:06;99450.66;;;8.05;100.00
63190;BME280;49286;44.460;26.114;2023-04-03T01:38:32;99414.22;;;7.82;100.00
63190;BME280;49286;44.460;26.114;2023-04-03T01:40:57;99492.38;;;8.20;100.00
63190;BME280;49286;44.460;26.114;2023-04-03T01:43:23;99491.47;;;8.29;100.00
63190;BME280;49286;44.460;26.114;2023-04-03T01:45:48;99532.34;;;8.47;100.00
63190;BME280;49286;44.460;26.114;2023-04-03T01:48:15;99397.75;;;7.66;100.00
63190;BME280;49286;44.460;26.114;2023-04-03T01:50:41;99524.50;;;8.47;100.00
63190;BME280;49286;44.460;26.114;2023-04-03T01:53:07;99535.88;;;8.34;100.00
63190;BME280;49286;44.460;26.114;2023-04-03T01:55:32;99409.13;;;7.48;100.00
63190;BME280;49286;44.460;26.114;2023-04-03T01:57:58;99390.06;;;7.25;100.00
63190;BME280;49286;44.460;26.114;2023-04-03T02:00:23;99410.09;;;7.24;100.00
63190;BME280;49286;44.460;26.114;2023-04-03T02:02:49;99390.09;;;7.22;100.00
63190;BME280;49286;44.460;26.114;2023-04-03T02:05:15;99451.69;;;7.67;100.00
63190;BME280;49286;44.460;26.114;2023-04-03T02:07:40;99517.63;;;8.23;100.00
63190;BME280;49286;44.460;26.114;2023-04-03T02:10:06;99517.59;;;8.29;100.00
63190;BME280;49286;44.460;26.114;2023-04-03T02:12:32;99498.69;;;7.72;100.00
63190;BME280;49286;44.460;26.114;2023-04-03T02:14:57;99515.19;;;7.81;100.00
63190;BME280;49286;44.460;26.114;2023-04-03T02:17:23;99489.13;;;7.71;100.00
63190;BME280;49286;44.460;26.114;2023-04-03T02:19:48;99502.06;;;8.00;100.00
63190;BME280;49286;44.460;26.114;2023-04-03T02:22:14;99489.03;;;7.97;100.00
63190;BME280;49286;44.460;26.114;2023-04-03T02:24:39;99370.09;;;7.24;100.00
63190;BME280;49286;44.460;26.114;2023-04-03T02:27:05;99516.78;;;8.19;100.00
63190;BME280;49286;44.460;26.114;2023-04-03T02:29:31;99509.06;;;7.89;100.00
63190;BME280;49286;44.460;26.114;2023-04-03T02:31:56;99402.25;;;7.23;100.00
63190;BME280;49286;44.460;26.114;2023-04-03T02:34:22;99365.84;;;6.83;100.00
63190;BME280;49286;44.460;26.114;2023-04-03T02:36:47;99371.91;;;6.79;100.00
63190;BME280;49286;44.460;26.114;2023-04-03T02:39:13;99474.44;;;7.27;100.00
63190;BME280;49286;44.460;26.114;2023-04-03T02:41:39;99375.44;;;6.59;100.00
63190;BME280;49286;44.460;26.114;2023-04-03T02:44:05;99510.94;;;7.42;100.00
63190;BME280;49286;44.460;26.114;2023-04-03T02:46:32;99503.06;;;7.56;100.00
63190;BME280;49286;44.460;26.114;2023-04-03T02:48:58;99377.94;;;7.13;100.00
63190;BME280;49286;44.460;26.114;2023-04-03T02:51:24;99322.41;;;6.71;100.00
63190;BME280;49286;44.460;26.114;2023-04-03T02:53:50;99465.69;;;7.43;100.00
63190;BME280;49286;44.460;26.114;2023-04-03T02:56:16;99468.31;;;7.49;100.00
63190;BME280;49286;44.460;26.114;2023-04-03T02:58:43;99477.91;;;7.36;100.00
63190;BME280;49286;44.460;26.114;2023-04-03T03:01:09;99353.72;;;6.49;100.00
63190;BME280;49286;44.460;26.114;2023-04-03T03:03:35;99358.94;;;6.59;100.00
63190;BME280;49286;44.460;26.114;2023-04-03T03:06:03;99250.38;;;5.88;100.00
63190;BME280;49286;44.460;26.114;2023-04-03T03:08:28;99363.28;;;6.57;100.00
63190;BME280;49286;44.460;26.114;2023-04-03T03:10:54;99384.97;;;6.66;100.00
63190;BME280;49286;44.460;26.114;2023-04-03T03:13:19;99444.94;;;6.86;100.00
63190;BME280;49286;44.460;26.114;2023-04-03T03:15:45;99501.44;;;7.07;100.00
63190;BME280;49286;44.460;26.114;2023-04-03T03:18:10;99494.47;;;7.02;100.00
63190;BME280;49286;44.460;26.114;2023-04-03T03:20:36;99490.13;;;7.10;100.00
63190;BME280;49286;44.460;26.114;2023-04-03T03:23:03;99348.53;;;6.28;100.00
63190;BME280;49286;44.460;26.114;2023-04-03T03:25:28;99500.53;;;7.08;100.00
63190;BME280;49286;44.460;26.114;2023-04-03T03:27:53;99444.03;;;6.96;100.00
63190;BME280;49286;44.460;26.114;2023-04-03T03:30:19;99395.41;;;6.75;100.00
63190;BME280;49286;44.460;26.114;2023-04-03T03:32:45;99488.28;;;7.53;100.00
63190;BME280;49286;44.460;26.114;2023-04-03T03:35:10;99497.84;;;7.64;100.00
63190;BME280;49286;44.460;26.114;2023-04-03T03:37:36;99343.25;;;6.77;100.00
63190;BME280;49286;44.460;26.114;2023-04-03T03:40:01;99364.09;;;6.91;100.00
63190;BME280;49286;44.460;26.114;2023-04-03T03:42:27;99367.56;;;6.91;100.00
63190;BME280;49286;44.460;26.114;2023-04-03T03:44:53;99489.94;;;7.83;100.00
63190;BME280;49286;44.460;26.114;2023-04-03T03:47:18;99373.56;;;7.19;100.00
63190;BME280;49286;44.460;26.114;2023-04-03T03:49:44;99514.28;;;7.93;100.00
63190;BME280;49286;44.460;26.114;2023-04-03T03:52:09;99518.66;;;7.85;100.00
63190;BME280;49286;44.460;26.114;2023-04-03T03:54:36;99541.28;;;7.91;100.00
63190;BME280;49286;44.460;26.114;2023-04-03T03:57:02;99455.25;;;7.42;100.00
63190;BME280;49286;44.460;26.114;2023-04-03T03:59:28;99504.75;;;7.78;100.00
63190;BME280;49286;44.460;26.114;2023-04-03T04:01:53;99515.13;;;7.97;100.00
63190;BME280;49286;44.460;26.114;2023-04-03T04:04:21;99529.91;;;8.06;100.00
63190;BME280;49286;44.460;26.114;2023-04-03T04:06:46;99547.31;;;8.13;100.00
63190;BME280;49286;44.460;26.114;2023-04-03T04:09:12;99412.72;;;7.16;100.00
63190;BME280;49286;44.460;26.114;2023-04-03T04:11:37;99518.63;;;7.93;100.00
63190;BME280;49286;44.460;26.114;2023-04-03T04:14:05;99536.03;;;8.03;100.00
63190;BME280;49286;44.460;26.114;2023-04-03T04:16:31;99555.09;;;8.19;100.00
63190;BME280;49286;44.460;26.114;2023-04-03T04:18:56;99557.69;;;8.31;100.00
63190;BME280;49286;44.460;26.114;2023-04-03T04:21:21;99574.28;;;8.19;100.00
63190;BME280;49286;44.460;26.114;2023-04-03T04:23:47;99446.59;;;7.30;100.00
63190;BME280;49286;44.460;26.114;2023-04-03T04:26:12;99445.66;;;7.47;100.00
63190;BME280;49286;44.460;26.114;2023-04-03T04:28:38;99495.16;;;7.79;100.00
63190;BME280;49286;44.460;26.114;2023-04-03T04:31:03;99583.81;;;8.31;100.00
63190;BME280;49286;44.460;26.114;2023-04-03T04:33:29;99589.91;;;8.29;100.00
63190;BME280;49286;44.460;26.114;2023-04-03T04:35:55;99524.81;;;7.73;100.00
63190;BME280;49286;44.460;26.114;2023-04-03T04:38:21;99583.03;;;8.01;100.00
63190;BME280;49286;44.460;26.114;2023-04-03T04:40:48;99596.03;;;8.17;100.00
63190;BME280;49286;44.460;26.114;2023-04-03T04:43:13;99459.66;;;7.27;100.00
63190;BME280;49286;44.460;26.114;2023-04-03T04:45:40;99602.09;;;8.30;100.00
63190;BME280;49286;44.460;26.114;2023-04-03T04:48:06;99599.47;;;8.40;100.00
63190;BME280;49286;44.460;26.114;2023-04-03T04:50:31;99447.38;;;7.58;100.00
63190;BME280;49286;44.460;26.114;2023-04-03T04:52:57;99596.88;;;8.36;100.00
63190;BME280;49286;44.460;26.114;2023-04-03T04:55:22;99605.59;;;8.30;100.00
63190;BME280;49286;44.460;26.114;2023-04-03T04:57:48;99483.03;;;7.67;100.00
63190;BME280;49286;44.460;26.114;2023-04-03T05:00:14;99548.25;;;7.89;100.00
63190;BME280;49286;44.460;26.114;2023-04-03T05:02:40;99575.06;;;8.35;100.00
63190;BME280;49286;44.460;26.114;2023-04-03T05:05:06;99622.16;;;8.29;100.00
63190;BME280;49286;44.460;26.114;2023-04-03T05:07:32;99488.28;;;7.53;100.00
63190;BME280;49286;44.460;26.114;2023-04-03T05:09:57;99612.50;;;8.51;100.00
63190;BME280;49286;44.460;26.114;2023-04-03T05:12:23;99571.28;;;8.95;100.00
63190;BME280;49286;44.460;26.114;2023-04-03T05:14:48;99627.38;;;9.72;100.00
63190;BME280;49286;44.460;26.114;2023-04-03T05:17:14;99636.03;;;11.26;100.00
63190;BME280;49286;44.460;26.114;2023-04-03T05:19:39;99559.34;;;11.03;100.00
63190;BME280;49286;44.460;26.114;2023-04-03T05:22:05;99717.13;;;11.48;100.00
63190;BME280;49286;44.460;26.114;2023-04-03T05:24:30;99658.97;;;11.12;100.00
63190;BME280;49286;44.460;26.114;2023-04-03T05:26:56;99806.44;;;10.73;100.00
63190;BME280;49286;44.460;26.114;2023-04-03T05:29:22;99703.19;;;9.89;100.00
63190;BME280;49286;44.460;26.114;2023-04-03T05:31:49;99740.63;;;10.90;100.00
63190;BME280;49286;44.460;26.114;2023-04-03T05:34:15;99881.78;;;13.16;100.00
63190;BME280;49286;44.460;26.114;2023-04-03T05:36:41;99814.41;;;12.58;100.00
63190;BME280;49286;44.460;26.114;2023-04-03T05:39:06;99968.00;;;13.56;100.00
63190;BME280;49286;44.460;26.114;2023-04-03T05:41:33;99882.75;;;11.38;100.00
63190;BME280;49286;44.460;26.114;2023-04-03T05:43:59;99863.84;;;11.78;100.00
63190;BME280;49286;44.460;26.114;2023-04-03T05:46:24;99843.28;;;12.59;100.00
63190;BME280;49286;44.460;26.114;2023-04-03T05:48:50;100009.72;;;13.33;100.00
63190;BME280;49286;44.460;26.114;2023-04-03T05:51:19;99980.06;;;13.68;100.00
63190;BME280;49286;44.460;26.114;2023-04-03T05:53:47;100046.66;;;14.23;100.00
63190;BME280;49286;44.460;26.114;2023-04-03T05:56:13;99945.75;;;14.11;100.00
63190;BME280;49286;44.460;26.114;2023-04-03T05:58:38;99929.44;;;13.94;100.00
63190;BME280;49286;44.460;26.114;2023-04-03T06:01:04;100035.97;;;13.87;100.00
63190;BME280;49286;44.460;26.114;2023-04-03T06:03:30;99956.25;;;13.72;100.00
63190;BME280;49286;44.460;26.114;2023-04-03T06:05:56;99955.47;;;12.68;100.00
63190;BME280;49286;44.460;26.114;2023-04-03T06:08:22;100085.75;;;14.04;100.00
63190;BME280;49286;44.460;26.114;2023-04-03T06:10:49;99955.50;;;12.06;100.00
63190;BME280;49286;44.460;26.114;2023-04-03T06:13:15;100084.00;;;13.55;100.00
63190;BME280;49286;44.460;26.114;2023-04-03T06:15:41;100060.09;;;14.12;100.00
63190;BME280;49286;44.460;26.114;2023-04-03T06:18:06;100098.88;;;13.03;100.00
63190;BME280;49286;44.460;26.114;2023-04-03T06:20:32;100082.41;;;12.88;100.00
63190;BME280;49286;44.460;26.114;2023-04-03T06:22:57;99988.25;;;11.79;100.00
63190;BME280;49286;44.460;26.114;2023-04-03T06:25:23;100003.31;;;11.63;100.00
63190;BME280;49286;44.460;26.114;2023-04-03T06:27:48;100075.94;;;12.51;100.00
63190;BME280;49286;44.460;26.114;2023-04-03T06:30:14;100065.69;;;12.28;100.00
63190;BME280;49286;44.460;26.114;2023-04-03T06:32:39;99984.34;;;11.35;100.00
63190;BME280;49286;44.460;26.114;2023-04-03T06:35:06;100049.56;;;11.81;100.00
63190;BME280;49286;44.460;26.114;2023-04-03T06:37:31;100062.97;;;11.53;100.00
63190;BME280;49286;44.460;26.114;2023-04-03T06:40:01;99957.31;;;11.24;100.00
63190;BME280;49286;44.460;26.114;2023-04-03T06:42:28;99979.41;;;10.99;100.00
63190;BME280;49286;44.460;26.114;2023-04-03T06:44:53;100089.84;;;11.83;100.00
63190;BME280;49286;44.460;26.114;2023-04-03T06:47:19;100015.97;;;11.23;100.00
63190;BME280;49286;44.460;26.114;2023-04-03T06:49:44;100093.84;;;11.28;100.00
63190;BME280;49286;44.460;26.114;2023-04-03T06:52:12;100016.13;;;11.04;100.00
63190;BME280;49286;44.460;26.114;2023-04-03T06:54:39;100087.03;;;11.06;100.00
63190;BME280;49286;44.460;26.114;2023-04-03T06:57:04;100080.09;;;10.94;100.00
63190;BME280;49286;44.460;26.114;2023-04-03T06:59:30;99968.25;;;10.77;100.00
63190;BME280;49286;44.460;26.114;2023-04-03T07:01:55;100094.09;;;10.94;100.00
63190;BME280;49286;44.460;26.114;2023-04-03T07:04:21;100108.22;;;10.75;100.00
63190;BME280;49286;44.460;26.114;2023-04-03T07:06:47;100083.63;;;10.90;100.00
63190;BME280;49286;44.460;26.114;2023-04-03T07:09:15;100013.00;;;10.53;100.00
63190;BME280;49286;44.460;26.114;2023-04-03T07:11:41;99999.06;;;10.46;100.00
63190;BME280;49286;44.460;26.114;2023-04-03T07:14:06;100112.16;;;11.39;100.00
63190;BME280;49286;44.460;26.114;2023-04-03T07:16:34;100120.91;;;11.39;100.00
63190;BME280;49286;44.460;26.114;2023-04-03T07:19:00;100114.75;;;11.42;100.00
63190;BME280;49286;44.460;26.114;2023-04-03T07:21:26;99961.22;;;10.78;100.00
63190;BME280;49286;44.460;26.114;2023-04-03T07:23:53;99964.63;;;13.49;100.00
63190;BME280;49286;44.460;26.114;2023-04-03T07:26:20;100131.81;;;11.95;100.00
63190;BME280;49286;44.460;26.114;2023-04-03T07:28:49;100044.16;;;11.02;100.00
63190;BME280;49286;44.460;26.114;2023-04-03T07:31:16;100137.13;;;11.84;100.00
63190;BME280;49286;44.460;26.114;2023-04-03T07:33:42;100090.19;;;11.45;100.00
63190;BME280;49286;44.460;26.114;2023-04-03T07:36:09;100133.75;;;11.70;100.00
63190;BME280;49286;44.460;26.114;2023-04-03T07:38:35;100118.75;;;11.81;100.00
63190;BME280;49286;44.460;26.114;2023-04-03T07:41:02;100057.41;;;10.84;100.00
63190;BME280;49286;44.460;26.114;2023-04-03T07:43:32;100053.78;;;11.02;100.00
63190;BME280;49286;44.460;26.114;2023-04-03T07:45:59;100125.88;;;11.73;100.00
63190;BME280;49286;44.460;26.114;2023-04-03T07:48:26;100064.72;;;11.54;100.00
63190;BME280;49286;44.460;26.114;2023-04-03T07:50:51;100169.91;;;12.39;100.00
63190;BME280;49286;44.460;26.114;2023-04-03T07:53:17;100084.72;;;11.71;100.00
63190;BME280;49286;44.460;26.114;2023-04-03T07:55:46;100161.56;;;12.00;100.00
63190;BME280;49286;44.460;26.114;2023-04-03T07:58:14;100193.66;;;12.35;100.00
63190;BME280;49286;44.460;26.114;2023-04-03T08:00:40;100153.47;;;12.19;100.00
63190;BME280;49286;44.460;26.114;2023-04-03T08:03:07;100030.63;;;11.47;100.00
63190;BME280;49286;44.460;26.114;2023-04-03T08:05:40;100036.59;;;11.62;100.00
63190;BME280;49286;44.460;26.114;2023-04-03T08:08:06;100083.72;;;11.81;100.00
63190;BME280;49286;44.460;26.114;2023-04-03T08:10:33;100050.88;;;11.35;100.00
63190;BME280;49286;44.460;26.114;2023-04-03T08:12:59;100125.78;;;11.79;100.00
63190;BME280;49286;44.460;26.114;2023-04-03T08:15:25;100080.16;;;11.87;100.00
63190;BME280;49286;44.460;26.114;2023-04-03T08:17:50;100154.56;;;11.99;100.00
63190;BME280;49286;44.460;26.114;2023-04-03T08:20:17;100147.94;;;12.43;100.00
63190;BME280;49286;44.460;26.114;2023-04-03T08:22:42;100117.34;;;12.33;100.00
63190;BME280;49286;44.460;26.114;2023-04-03T08:25:08;100123.44;;;12.38;100.00
63190;BME280;49286;44.460;26.114;2023-04-03T08:27:34;100035.50;;;11.83;100.00
63190;BME280;49286;44.460;26.114;2023-04-03T08:29:59;100081.09;;;11.87;100.00
63190;BME280;49286;44.460;26.114;2023-04-03T08:32:25;100090.97;;;11.57;100.00
63190;BME280;49286;44.460;26.114;2023-04-03T08:34:52;100169.63;;;12.64;100.00
63190;BME280;49286;44.460;26.114;2023-04-03T08:37:18;100151.00;;;12.78;100.00
63190;BME280;49286;44.460;26.114;2023-04-03T08:39:44;100171.09;;;12.86;100.00
63190;BME280;49286;44.460;26.114;2023-04-03T08:45:12;100050.22;;;12.70;100.00
63190;BME280;49286;44.460;26.114;2023-04-03T08:47:45;100170.47;;;13.33;100.00
63190;BME280;49286;44.460;26.114;2023-04-03T08:50:17;100075.63;;;12.71;100.00
63190;BME280;49286;44.460;26.114;2023-04-03T08:52:47;100170.06;;;13.57;100.00
63190;BME280;49286;44.460;26.114;2023-04-03T08:55:29;100188.69;;;13.48;100.00
63190;BME280;49286;44.460;26.114;2023-04-03T08:58:04;100193.84;;;13.56;100.00
63190;BME280;49286;44.460;26.114;2023-04-03T09:00:41;100107.91;;;12.86;100.00
63190;BME280;49286;44.460;26.114;2023-04-03T09:03:15;100211.75;;;13.34;100.00
63190;BME280;49286;44.460;26.114;2023-04-03T09:05:51;100097.44;;;12.80;100.00
63190;BME280;49286;44.460;26.114;2023-04-03T09:08:27;100111.00;;;13.13;100.00
63190;BME280;49286;44.460;26.114;2023-04-03T09:11:09;100208.31;;;13.84;100.00
63190;BME280;49286;44.460;26.114;2023-04-03T09:13:54;100070.75;;;13.59;100.00
63190;BME280;49286;44.460;26.114;2023-04-03T09:22:18;100185.03;;;13.58;100.00
63190;BME280;49286;44.460;26.114;2023-04-03T09:24:44;100060.72;;;13.80;100.00
63190;BME280;49286;44.460;26.114;2023-04-03T09:27:11;100162.41;;;14.43;100.00
63190;BME280;49286;44.460;26.114;2023-04-03T09:29:42;100177.16;;;14.54;100.00
63190;BME280;49286;44.460;26.114;2023-04-03T09:32:27;100152.63;;;14.00;100.00
63190;BME280;49286;44.460;26.114;2023-04-03T09:34:54;100159.53;;;14.08;100.00
63190;BME280;49286;44.460;26.114;2023-04-03T09:37:37;100197.63;;;13.92;100.00
63190;BME280;49286;44.460;26.114;2023-04-03T09:40:05;100090.06;;;13.60;100.00
63190;BME280;49286;44.460;26.114;2023-04-03T09:42:31;100058.94;;;13.80;100.00
63190;BME280;49286;44.460;26.114;2023-04-03T09:45:03;100150.44;;;13.77;100.00
63190;BME280;49286;44.460;26.114;2023-04-03T09:47:38;100147.09;;;13.65;100.00
63190;BME280;49286;44.460;26.114;2023-04-03T09:52:42;99989.66;;;13.22;100.00
63190;BME280;49286;44.460;26.114;2023-04-03T09:55:23;100085.06;;;13.94;100.00
63190;BME280;49286;44.460;26.114;2023-04-03T09:58:02;100141.41;;;14.35;100.00
63190;BME280;49286;44.460;26.114;2023-04-03T10:00:34;100047.88;;;14.06;100.00
63190;BME280;49286;44.460;26.114;2023-04-03T10:03:01;100163.19;;;14.00;100.00
63190;BME280;49286;44.460;26.114;2023-04-03T10:05:40;100140.41;;;14.42;100.00
63190;BME280;49286;44.460;26.114;2023-04-03T10:08:33;100158.69;;;14.51;100.00
63190;BME280;49286;44.460;26.114;2023-04-03T10:11:14;100037.94;;;13.76;100.00
63190;BME280;49286;44.460;26.114;2023-04-03T10:13:59;100075.53;;;13.85;100.00
63190;BME280;49286;44.460;26.114;2023-04-03T10:16:39;100044.44;;;13.56;100.00
63190;BME280;49286;44.460;26.114;2023-04-03T10:21:59;100134.56;;;14.70;100.00
63190;BME280;49286;44.460;26.114;2023-04-03T10:33:20;100163.16;;;15.32;100.00
63190;BME280;49286;44.460;26.114;2023-04-03T10:41:20;100099.84;;;14.46;100.00
63190;BME280;49286;44.460;26.114;2023-04-03T10:46:49;100058.44;;;14.47;100.00
63190;BME280;49286;44.460;26.114;2023-04-03T10:49:20;100151.81;;;15.27;100.00
63190;BME280;49286;44.460;26.114;2023-04-03T10:52:10;100025.63;;;14.60;100.00
63190;BME280;49286;44.460;26.114;2023-04-03T10:54:45;100050.25;;;14.61;100.00
63190;BME280;49286;44.460;26.114;2023-04-03T10:57:14;100042.34;;;14.61;100.00
63190;BME280;49286;44.460;26.114;2023-04-03T11:02:33;100140.06;;;15.01;100.00
63190;BME280;49286;44.460;26.114;2023-04-03T11:05:20;100135.59;;;14.19;100.00
63190;BME280;49286;44.460;26.114;2023-04-03T11:07:51;100133.97;;;14.97;100.00
63190;BME280;49286;44.460;26.114;2023-04-03T11:10:23;100027.41;;;13.74;100.00
63190;BME280;49286;44.460;26.114;2023-04-03T11:13:22;100140.41;;;14.86;100.00
63190;BME280;49286;44.460;26.114;2023-04-03T11:15:53;100104.81;;;15.02;100.00
63190;BME280;49286;44.460;26.114;2023-04-03T11:18:22;100096.63;;;14.74;100.00
63190;BME280;49286;44.460;26.114;2023-04-03T11:21:04;100095.31;;;14.51;100.00
63190;BME280;49286;44.460;26.114;2023-04-03T11:23:35;100131.34;;;14.97;100.00
63190;BME280;49286;44.460;26.114;2023-04-03T11:26:13;100109.03;;;14.28;100.00
63190;BME280;49286;44.460;26.114;2023-04-03T11:28:40;100065.09;;;14.26;100.00
63190;BME280;49286;44.460;26.114;2023-04-03T11:31:20;100128.59;;;15.01;100.00
63190;BME280;49286;44.460;26.114;2023-04-03T11:34:03;100092.94;;;14.81;100.00
63190;BME280;49286;44.460;26.114;2023-04-03T11:36:33;100022.13;;;14.60;100.00
63190;BME280;49286;44.460;26.114;2023-04-03T11:39:34;100045.31;;;14.45;100.00
63190;BME280;49286;44.460;26.114;2023-04-03T11:42:24;100126.47;;;15.18;100.00
63190;BME280;49286;44.460;26.114;2023-04-03T11:48:42;100074.75;;;15.08;100.00
63190;BME280;49286;44.460;26.114;2023-04-03T11:50:46;100073.31;;;14.93;100.00
63190;BME280;49286;44.460;26.114;2023-04-03T11:58:22;100002.66;;;14.23;100.00
63190;BME280;49286;44.460;26.114;2023-04-03T12:00:51;100045.34;;;14.44;100.00
63190;BME280;49286;44.460;26.114;2023-04-03T12:16:18;100057.06;;;13.85;100.00
63190;BME280;49286;44.460;26.114;2023-04-03T12:26:51;100111.53;;;14.78;100.00
63190;BME280;49286;44.460;26.114;2023-04-03T12:40:34;100111.91;;;14.61;100.00
63190;BME280;49286;44.460;26.114;2023-04-03T12:48:38;100008.75;;;14.27;100.00
63190;BME280;49286;44.460;26.114;2023-04-03T12:51:16;99973.63;;;14.23;100.00
63190;BME280;49286;44.460;26.114;2023-04-03T12:53:44;100090.84;;;14.97;100.00
63190;BME280;49286;44.460;26.114;2023-04-03T12:58:48;99972.56;;;14.32;100.00
63190;BME280;49286;44.460;26.114;2023-04-03T13:01:16;99982.84;;;14.04;100.00
63190;BME280;49286;44.460;26.114;2023-04-03T13:03:49;100026.00;;;14.00;100.00
63190;BME280;49286;44.460;26.114;2023-04-03T13:06:22;100098.31;;;14.34;100.00
63190;BME280;49286;44.460;26.114;2023-04-03T13:08:56;100079.41;;;14.56;100.00
63190;BME280;49286;44.460;26.114;2023-04-03T13:11:24;100056.22;;;14.70;100.00
63190;BME280;49286;44.460;26.114;2023-04-03T13:14:02;100080.47;;;14.88;100.00
63190;BME280;49286;44.460;26.114;2023-04-03T13:16:29;100048.53;;;14.60;100.00
63190;BME280;49286;44.460;26.114;2023-04-03T13:18:55;100088.38;;;14.47;100.00
63190;BME280;49286;44.460;26.114;2023-04-03T13:23:52;100085.41;;;14.21;100.00
63190;BME280;49286;44.460;26.114;2023-04-03T13:26:21;99941.03;;;13.85;100.00
63190;BME280;49286;44.460;26.114;2023-04-03T13:28:47;99969.38;;;13.74;100.00
63190;BME280;49286;44.460;26.114;2023-04-03T13:36:40;100075.59;;;14.71;100.00
63190;BME280;49286;44.460;26.114;2023-04-03T13:41:40;100084.56;;;14.62;100.00
63190;BME280;49286;44.460;26.114;2023-04-03T13:44:36;100076.81;;;14.53;100.00
63190;BME280;49286;44.460;26.114;2023-04-03T13:47:19;100080.13;;;14.64;100.00
63190;BME280;49286;44.460;26.114;2023-04-03T13:52:53;99992.72;;;13.94;100.00
63190;BME280;49286;44.460;26.114;2023-04-03T13:55:23;99987.44;;;13.96;100.00
63190;BME280;49286;44.460;26.114;2023-04-03T14:00:30;100083.84;;;14.55;100.00
63190;BME280;49286;44.460;26.114;2023-04-03T14:02:57;100082.88;;;14.60;100.00
63190;BME280;49286;44.460;26.114;2023-04-03T14:05:24;100076.72;;;14.59;100.00
63190;BME280;49286;44.460;26.114;2023-04-03T14:07:51;100088.13;;;14.61;100.00
63190;BME280;49286;44.460;26.114;2023-04-03T14:10:17;100066.50;;;14.42;100.00
63190;BME280;49286;44.460;26.114;2023-04-03T14:12:43;99977.41;;;14.11;100.00
63190;BME280;49286;44.460;26.114;2023-04-03T14:15:29;99990.66;;;14.08;100.00
63190;BME280;49286;44.460;26.114;2023-04-03T14:17:55;100077.19;;;14.36;100.00
63190;BME280;49286;44.460;26.114;2023-04-03T14:20:24;99991.19;;;13.84;100.00
63190;BME280;49286;44.460;26.114;2023-04-03T14:22:50;100025.38;;;13.88;100.00
63190;BME280;49286;44.460;26.114;2023-04-03T14:25:16;99967.66;;;13.73;100.00
63190;BME280;49286;44.460;26.114;2023-04-03T14:27:47;100082.25;;;14.03;100.00
63190;BME280;49286;44.460;26.114;2023-04-03T14:30:29;100098.56;;;14.22;100.00
63190;BME280;49286;44.460;26.114;2023-04-03T14:32:55;100085.19;;;14.31;100.00